Tiempo atmosférico en la estación meteorológica de Cala, Huelva (618 m.)



Fecha
DESCASC
Temp. máxima en grados centígrados (hora)
DESCASC
Temp. mínima en grados centígrados (hora)
DESCASC
Temp. media en grados centígrados
DESCASC
Racha de viento máxima en m/sg (hora)
DESCASC
Velocidad máxima media en intervalos de 10 minutos(hora)
DESCASC
Precipitaciones diarias en mm
DESCASC
Precipitaciones de 00:00 a 06:00 en mm
DESCASC
Precipitaciones de 06:00 a 12:00 en mm
DESCASC
Precipitaciones de 12:00 a 18:00 en mm
DESCASC
Precipitaciones de 18:00 a 24:00 en mm
DESCASC
31-03-2020 15.4 (14:10) 7 (23:50) 11.2 8.89 (15:40) 4.17 (15:40) 34.6 23.4 6 3 2.2
30-03-2020 15.9 (14:20) 6.4 (06:40) 11.1 7.78 (15:50) 3.06 (16:10) 10.2 0 0 7.8 2.4
29-03-2020 18.9 (14:40) 6.4 (00:00) 12.6 6.39 (19:40) 3.06 (19:40) 0 0 0 0 0
28-03-2020 16 (13:00) 3.5 (00:00) 9.8 5.28 (13:30) 2.22 (14:00) 0 0 0 0 0
27-03-2020 16.3 (15:30) 3.8 (00:00) 10 8.33 (01:00) 4.44 (01:00) 0 0 0 0 0
26-03-2020 18.9 (12:30) 8 (00:00) 13.4 9.72 (18:10) 5.28 (17:30) 0 0 0 0 0
25-03-2020 17.8 (15:00) 7.1 (00:00) 12.4 7.22 (23:40) 3.89 (23:40) 0 0 0 0 0
24-03-2020 16.9 (16:30) 6.3 (00:00) 11.6 8.33 (11:20) 4.17 (11:20) 0.2 0.2 0 0 0
23-03-2020 15.4 (13:00) 6.3 (00:00) 10.8 9.17 (16:30) 3.61 (16:40) 7.8 0 0 0 7.8
22-03-2020 13.6 (15:20) 5.9 (04:40) 9.8 5.83 (16:10) 3.33 (10:30) 1.2 0.6 0.2 0 0.4
21-03-2020 11.5 (11:40) 5.1 (00:00) 8.3 10 (00:10) 4.17 (00:10) 15.4 11 0.2 3.4 0.8
20-03-2020 15.4 (13:40) 9.7 (00:00) 12.5 9.17 (21:20) 3.61 (21:20) 25.4 0 0 1.4 24
19-03-2020 18.9 (14:20) 8.1 (00:00) 13.5 5 (14:40) 2.22 (13:30) 0 0 0 0 0
18-03-2020 20.5 (15:00) 9.7 (00:00) 15.1 9.72 (11:40) 4.72 (11:40) 0 0 0 0 0
17-03-2020 14.6 (16:40) 3.7 (00:00) 9.2 10.83 (11:30) 5.56 (13:50) 1.8 0 1.6 0 0.2
16-03-2020 11.3 (13:10) 2.6 (00:00) 7 14.44 (17:10) 7.5 (17:10) 3.2 0 0 0.6 2.6
15-03-2020 21.2 (14:00) 8.5 (00:00) 14.9 10 (23:30) 5.83 (23:30) 0 0 0 0 0
14-03-2020 22.6 (16:20) 8.4 (00:00) 15.5 4.72 (16:00) 2.22 (15:20) 0 0 0 0 0
13-03-2020 22 (17:00) 9.4 (07:20) 15.7 6.39 (16:00) 3.06 (13:00) 0 0 0 0 0
12-03-2020 22.8 (13:50) 11.1 (00:00) 16.9 5.28 (13:40) 2.78 (16:40) 0 0 0 0 0
11-03-2020 25.7 (14:20) 9.9 (00:00) 17.8 6.94 (12:00) 3.33 (13:00) 0 0 0 0 0
10-03-2020 24.6 (17:20) 8.9 (00:00) 16.8 6.39 (11:10) 3.61 (09:40) 0 0 0 0 0
09-03-2020 20 (12:00) 8.5 (00:00) 14.3 7.78 (17:00) 4.72 (02:10) 0 0 0 0 0
08-03-2020 19.6 (14:30) 2.9 (00:00) 11.3 6.94 (17:20) 3.61 (17:10) 0 0 0 0 0
07-03-2020 17.2 (17:00) 4.3 (00:00) 10.8 10 (02:50) 4.44 (02:50) 0 0 0 0 0
06-03-2020 14 (17:00) 5.8 (00:00) 9.9 10.56 (09:40) 5.83 (11:20) 0.2 0 0.2 0 0
05-03-2020 14.6 (16:10) 7.6 (00:00) 11.1 10.28 (13:20) 5.83 (13:20) 0.6 0 0.4 0.2 0
04-03-2020 17.7 (16:20) 8.8 (00:00) 13.3 8.61 (15:20) 4.72 (14:20) 0 0 0 0 0
03-03-2020 15.2 (13:10) 6.2 (00:00) 10.7 10.83 (12:10) 5.83 (12:10) 0 0 0 0 0
02-03-2020 14.3 (11:10) 7.5 (00:00) 10.9 13.61 (11:30) 7.22 (13:00) 5.8 3.6 2.2 0 0

Gráficas

Temp. máximas Temp. mínimas Temp. medias Precipitaciones Rachas de viento máximas Velocidades máximas media en intervalos de 10 minutos

Datos horarios

Fecha y hora oficial Temperatura (ºC) Velocidad del viento (km/h) Dirección del viento Racha (km/h) Dirección de racha Precipitación (mm) Presión (hPa) Tendencia (hPa) Humedad (%)
2020-03-31 23:00:00 7.4 7 Oeste 15 Oeste 0 -- -- 95
2020-03-31 22:00:00 8.1 5 Oeste 10 Oeste 0 -- -- 93
2020-03-31 21:00:00 9.3 4 Oeste 15 Oeste 0 -- -- 91
2020-03-31 20:00:00 10.4 6 Oeste 15 Noroeste 0 -- -- 93
2020-03-31 19:00:00 10.8 3 Oeste 22 Sudoeste 2.2 -- -- 95
2020-03-31 18:00:00 10.7 3 Sudoeste 18 Sudoeste 0.8 -- -- 93
2020-03-31 17:00:00 10.3 8 Oeste 25 Oeste 1.6 -- -- 93
2020-03-31 16:00:00 11.2 10 Oeste 32 Oeste 0.4 -- -- 87
2020-03-31 15:00:00 13.9 10 Sur 32 Sudoeste 0 -- -- 78
2020-03-31 14:00:00 15 9 Sur 24 Sudoeste 0.2 -- -- 75
2020-03-31 13:00:00 14 9 Sur 23 Sudoeste 0 -- -- 77
2020-03-31 12:00:00 12.5 7 Sur 26 Sudoeste 0 -- -- 85
2020-03-31 11:00:00 10.1 6 Sur 17 Sudoeste 0 -- -- 94
2020-03-31 10:00:00 9.1 8 Sudoeste 18 Sudoeste 0 -- -- 96
2020-03-31 09:00:00 8.6 7 Oeste 22 Sudoeste 0.6 -- -- 97
2020-03-31 08:00:00 8.7 8 Sudoeste 27 Sudoeste 0.2 -- -- 98
2020-03-31 07:00:00 8.7 4 Sur 13 Sur 5.2 -- -- 98
2020-03-31 06:00:00 8.5 4 Noroeste 12 Este 12 -- -- 98
2020-03-31 05:00:00 8.4 3 Sudeste 13 Sudeste 7 -- -- 98
2020-03-31 04:00:00 8.3 5 Sudeste 19 Sudeste 2.8 -- -- 98
2020-03-31 03:00:00 8.3 6 Sudeste 21 Sudeste 1.2 -- -- 98
2020-03-31 02:00:00 8.1 5 Sudeste 14 Este 0 -- -- 98
2020-03-31 01:00:00 7.9 5 Este 16 Sudeste 0.4 -- -- 96
2020-03-31 00:00:00 7.9 2 Sudeste 6 Este 0 -- -- 96
2020-03-30 23:00:00 8 3 Este 10 Este 0 -- -- 95
2020-03-30 22:00:00 8.2 2 Este 8 Este 0 -- -- 95
2020-03-30 21:00:00 8.6 3 Este 9 Este 0.4 -- -- 94
2020-03-30 20:00:00 9 3 Sudeste 9 Este 0.8 -- -- 93
2020-03-30 19:00:00 9.4 2 Sur 10 Oeste 1.2 -- -- 91
2020-03-30 18:00:00 9.4 3 Oeste 14 Noroeste 2 -- -- 93
2020-03-30 17:00:00 9.8 8 Noroeste 24 Oeste 4.2 -- -- 91
2020-03-30 16:00:00 12.3 7 Sudoeste 28 Sudoeste 1.6 -- -- 81
2020-03-30 15:00:00 14.4 3 Sur 16 Sudeste 0 -- -- 71
2020-03-30 14:00:00 15.2 6 Sur 13 Sudoeste 0 -- -- 64
2020-03-30 13:00:00 14.7 5 Sur 13 Sudeste 0 -- -- 66
2020-03-30 12:00:00 13.5 4 Sudeste 12 Sudeste 0 -- -- 75
2020-03-30 11:00:00 11.1 3 Sudeste 6 Sudeste 0 -- -- 87
2020-03-30 10:00:00 9.4 2 Sudeste 5 Sudeste 0 -- -- 94
2020-03-30 09:00:00 7.9 0 Calma 2 Sudoeste 0 -- -- 98
2020-03-30 08:00:00 6.9 0 Calma 2 Noroeste 0 -- -- 97
2020-03-30 07:00:00 6.4 0 Calma 2 Sudoeste 0 -- -- 93
2020-03-30 06:00:00 7 0 Calma 0 Calma 0 -- -- 90
2020-03-30 05:00:00 8.2 0 Calma 8 Oeste 0 -- -- 89
2020-03-30 04:00:00 8.9 4 Oeste 13 Sudoeste 0 -- -- 92
2020-03-30 03:00:00 8 0 Calma 2 Sudoeste 0 -- -- 89
2020-03-30 02:00:00 9.1 0 Calma 7 Oeste 0 -- -- 85
2020-03-30 01:00:00 10.1 5 Oeste 7 Oeste 0 -- -- 84
2020-03-30 00:00:00 11 5 Oeste 10 Oeste 0 -- -- 80
2020-03-29 23:00:00 11.2 4 Oeste 9 Oeste 0 -- -- 79
2020-03-29 22:00:00 11.8 5 Oeste 15 Oeste 0 -- -- 76
2020-03-29 21:00:00 12.5 7 Oeste 12 Oeste 0 -- -- 74
2020-03-29 20:00:00 14.1 7 Noroeste 23 Oeste 0 -- -- 67
2020-03-29 19:00:00 16.1 6 Sudoeste 18 Sudoeste 0 -- -- 57
2020-03-29 18:00:00 17 8 Oeste 19 Sudoeste 0 -- -- 54
2020-03-29 17:00:00 17.9 6 Sur 13 Sur 0 -- -- 50
2020-03-29 16:00:00 17.8 4 Sur 11 Sudoeste 0 -- -- 47
2020-03-29 15:00:00 18.9 5 Sur 17 Sudoeste 0 -- -- 46
2020-03-29 14:00:00 18.7 6 Sur 14 Sur 0 -- -- 53
2020-03-29 13:00:00 17.8 4 Sur 10 Sudeste 0 -- -- 53
2020-03-29 12:00:00 17 3 Sur 9 Sudeste 0 -- -- 59
2020-03-29 11:00:00 13.3 3 Oeste 13 Oeste 0 -- -- 74
2020-03-29 10:00:00 9.6 7 Oeste 18 Oeste 0 -- -- 88
2020-03-29 09:00:00 7.3 2 Oeste 10 Noroeste 0 -- -- 93
2020-03-29 08:00:00 6.7 0 Calma 10 Oeste 0 -- -- 91
2020-03-29 07:00:00 6.5 0 Calma 5 Noroeste 0 -- -- 90
2020-03-29 06:00:00 6.9 0 Calma 6 Oeste 0 -- -- 87
2020-03-29 05:00:00 8 3 Nordeste 10 Oeste 0 -- -- 83
2020-03-29 03:00:00 8.2 6 Oeste 10 Oeste 0 -- -- 85
2020-03-29 01:00:00 7.8 4 Oeste 6 Oeste 0 -- -- 88
2020-03-29 00:00:00 8.6 4 Oeste 8 Oeste 0 -- -- 78
2020-03-28 23:00:00 8.4 4 Oeste 9 Oeste 0 -- -- 83
2020-03-28 22:00:00 9.2 0 Calma 6 Sudoeste 0 -- -- 71
2020-03-28 21:00:00 10.3 3 Sudoeste 6 Sudoeste 0 -- -- 67
2020-03-28 20:00:00 12.1 0 Calma 6 Sudeste 0 -- -- 59
2020-03-28 19:00:00 14.1 3 Sudeste 9 Sudeste 0 -- -- 49
2020-03-28 18:00:00 14.7 0 Calma 10 Este 0 -- -- 51
2020-03-28 17:00:00 15.3 5 Sudeste 10 Sudeste 0 -- -- 50
2020-03-28 16:00:00 14.9 5 Sudeste 16 Este 0 -- -- 51
2020-03-28 15:00:00 15.2 5 Sudeste 18 Este 0 -- -- 55
2020-03-28 14:00:00 15 8 Este 19 Este 0 -- -- 58
2020-03-28 13:00:00 16 6 Sudeste 16 Sudeste 0 -- -- 53
2020-03-28 12:00:00 15.2 5 Sudeste 18 Sudeste 0 -- -- 59
2020-03-28 11:00:00 14.2 5 Sudeste 14 Sudeste 0 -- -- 63
2020-03-28 10:00:00 11.3 4 Sudeste 10 Sudeste 0 -- -- 70
2020-03-28 09:00:00 7.6 3 Este 6 Este 0 -- -- 79
2020-03-28 08:00:00 5.2 0 Calma 3 Este 0 -- -- 87
2020-03-28 07:00:00 5.5 0 Calma 6 Sudeste 0 -- -- 84
2020-03-28 06:00:00 5.7 0 Calma 3 Nordeste 0 -- -- 86
2020-03-28 05:00:00 5.2 0 Calma 2 Sudoeste 0 -- -- 90
2020-03-28 04:00:00 3.8 0 Calma 3 Sudoeste 0 -- -- 92
2020-03-28 03:00:00 3.9 0 Calma 2 Sudoeste 0 -- -- 88
2020-03-28 02:00:00 4.7 0 Calma 2 Noroeste 0 -- -- 83
2020-03-28 01:00:00 6.2 0 Calma 12 Este 0 -- -- 78
2020-03-28 00:00:00 7.3 4 Nordeste 16 Nordeste 0 -- -- 75
2020-03-27 23:00:00 7.9 4 Este 14 Este 0 -- -- 76
2020-03-27 22:00:00 8.6 4 Nordeste 15 Nordeste 0 -- -- 80
2020-03-27 21:00:00 9.3 3 Este 12 Nordeste 0 -- -- 80
2020-03-27 20:00:00 10.3 5 Nordeste 15 Nordeste 0 -- -- 74
2020-03-27 19:00:00 11.5 5 Nordeste 13 Nordeste 0 -- -- 70
2020-03-27 18:00:00 12.7 6 Nordeste 18 Nordeste 0 -- -- 68
2020-03-27 17:00:00 14.2 6 Norte 18 Nordeste 0 -- -- 62
2020-03-27 16:00:00 15.1 6 Nordeste 20 Noroeste 0 -- -- 58
2020-03-27 15:00:00 15.9 6 Noroeste 18 Sudoeste 0 -- -- 51
2020-03-27 14:00:00 15.8 8 Oeste 20 Oeste 0 -- -- 51
2020-03-27 13:00:00 15.5 6 Oeste 15 Oeste 0 -- -- 55
2020-03-27 12:00:00 15.4 6 Sudoeste 14 Oeste 0 -- -- 58
2020-03-27 11:00:00 13 3 Nordeste 8 Este 0 -- -- 65
2020-03-27 10:00:00 9.5 6 Sudoeste 16 Noroeste 0 -- -- 73
2020-03-27 09:00:00 5.6 6 Noroeste 12 Noroeste 0 -- -- 92
2020-03-27 08:00:00 4.1 7 Noroeste 22 Oeste 0 -- -- 96
2020-03-27 07:00:00 3.8 9 Noroeste 23 Oeste 0 -- -- 95
2020-03-27 06:00:00 4 6 Noroeste 21 Sudoeste 0 -- -- 92
2020-03-27 05:00:00 4.8 9 Oeste 27 Noroeste 0 -- -- 91
2020-03-27 04:00:00 5.5 3 Noroeste 27 Noroeste 0 -- -- 91
2020-03-27 03:00:00 6.4 13 Oeste 26 Oeste 0 -- -- 86
2020-03-27 02:00:00 7.2 10 Noroeste 28 Noroeste 0 -- -- 87
2020-03-27 01:00:00 7.8 16 Oeste 30 Noroeste 0 -- -- 87
2020-03-27 00:00:00 8 8 Noroeste 18 Oeste 0 -- -- 85
2020-03-26 23:00:00 9.1 4 Noroeste 12 Noroeste 0 -- -- 80
2020-03-26 22:00:00 10.2 7 Noroeste 16 Oeste 0 -- -- 75
2020-03-26 21:00:00 11.7 8 Noroeste 19 Oeste 0 -- -- 69
2020-03-26 20:00:00 13.1 7 Noroeste 30 Noroeste 0 -- -- 63
2020-03-26 19:00:00 14.9 17 Noroeste 35 Oeste 0 -- -- 52
2020-03-26 18:00:00 16.7 17 Noroeste 34 Noroeste 0 -- -- 48
2020-03-26 17:00:00 17.5 17 Noroeste 33 Oeste 0 -- -- 47
2020-03-26 16:00:00 17.1 16 Noroeste 34 Noroeste 0 -- -- 51
2020-03-26 15:00:00 17.7 17 Noroeste 30 Oeste 0 -- -- 48
2020-03-26 14:00:00 18.5 16 Noroeste 32 Oeste 0 -- -- 42
2020-03-26 13:00:00 18.9 14 Noroeste 25 Oeste 0 -- -- 45
2020-03-26 12:00:00 18.8 10 Oeste 27 Oeste 0 -- -- 49
2020-03-26 11:00:00 17.4 12 Noroeste 22 Oeste 0 -- -- 52
2020-03-26 10:00:00 14 7 Noroeste 17 Oeste 0 -- -- 71
2020-03-26 09:00:00 10.1 9 Oeste 15 Oeste 0 -- -- 81
2020-03-26 08:00:00 8.2 5 Noroeste 17 Oeste 0 -- -- 89
2020-03-26 07:00:00 8.2 3 Noroeste 15 Oeste 0 -- -- 89
2020-03-26 06:00:00 8.7 8 Oeste 20 Noroeste 0 -- -- 92
2020-03-26 05:00:00 8.9 7 Oeste 21 Noroeste 0 -- -- 94
2020-03-26 04:00:00 9.4 10 Oeste 22 Oeste 0 -- -- 95
2020-03-26 03:00:00 9.9 12 Oeste 24 Oeste 0 -- -- 94
2020-03-26 02:00:00 10.4 12 Oeste 24 Oeste 0 -- -- 93
2020-03-26 01:00:00 10.9 10 Oeste 24 Noroeste 0 -- -- 93
2020-03-26 00:00:00 10.9 12 Oeste 26 Noroeste 0 -- -- 92
2020-03-25 23:00:00 10.7 12 Oeste 22 Oeste 0 -- -- 87
2020-03-25 22:00:00 11.4 11 Oeste 20 Oeste 0 -- -- 84
2020-03-25 21:00:00 11.7 7 Oeste 14 Oeste 0 -- -- 79
2020-03-25 20:00:00 12.8 8 Oeste 15 Oeste 0 -- -- 75
2020-03-25 19:00:00 15.5 6 Noroeste 14 Noroeste 0 -- -- 56
2020-03-25 18:00:00 16.6 9 Noroeste 23 Norte 0 -- -- 53
2020-03-25 17:00:00 17.5 5 Norte 16 Norte 0 -- -- 49
2020-03-25 16:00:00 16.6 2 Oeste 14 Este 0 -- -- 64
2020-03-25 15:00:00 17.8 5 Oeste 15 Oeste 0 -- -- 51
2020-03-25 14:00:00 17 11 Oeste 19 Oeste 0 -- -- 59
2020-03-25 13:00:00 16.2 6 Oeste 20 Oeste 0 -- -- 64
2020-03-25 12:00:00 16.7 8 Oeste 18 Oeste 0 -- -- 59
2020-03-25 11:00:00 15.9 7 Sudoeste 15 Oeste 0 -- -- 64
2020-03-25 10:00:00 12.3 0 Calma 5 Sudoeste 0 -- -- 77
2020-03-25 09:00:00 10.3 0 Calma 6 Oeste 0 -- -- 83
2020-03-25 08:00:00 9.4 2 Oeste 6 Oeste 0 -- -- 88
2020-03-25 07:00:00 9.2 3 Oeste 8 Oeste 0 -- -- 87
2020-03-25 06:00:00 8.9 0 Calma 2 Sur 0 -- -- 93
2020-03-25 05:00:00 8.3 0 Calma 3 Sudoeste 0 -- -- 95
2020-03-25 04:00:00 7.4 0 Calma 2 Sudoeste 0 -- -- 95
2020-03-25 03:00:00 7.3 2 Oeste 3 Noroeste 0 -- -- 91
2020-03-25 02:00:00 7.9 0 Calma 2 Noroeste 0 -- -- 89
2020-03-25 01:00:00 9 0 Calma 4 Este 0 -- -- 84
2020-03-25 00:00:00 9.9 2 Este 11 Este 0 -- -- 81
2020-03-24 23:00:00 10.5 3 Este 14 Sudeste 0 -- -- 79
2020-03-24 22:00:00 12.1 3 Este 18 Este 0 -- -- 74
2020-03-24 21:00:00 13.5 9 Nordeste 21 Nordeste 0 -- -- 70
2020-03-24 20:00:00 14 5 Nordeste 17 Nordeste 0 -- -- 69
2020-03-24 19:00:00 15 6 Nordeste 15 Nordeste 0 -- -- 64
2020-03-24 18:00:00 16 8 Nordeste 19 Nordeste 0 -- -- 59
2020-03-24 17:00:00 16.8 6 Este 21 Nordeste 0 -- -- 57
2020-03-24 16:00:00 16.6 10 Nordeste 22 Nordeste 0 -- -- 58
2020-03-24 15:00:00 15.5 7 Nordeste 22 Este 0 -- -- 62
2020-03-24 14:00:00 15.6 9 Nordeste 25 Este 0 -- -- 59
2020-03-24 13:00:00 15.3 13 Este 26 Nordeste 0 -- -- 66
2020-03-24 12:00:00 14.5 9 Nordeste 30 Nordeste 0 -- -- 68
2020-03-24 11:00:00 13 13 Nordeste 28 Nordeste 0 -- -- 73
2020-03-24 10:00:00 11.3 11 Nordeste 27 Nordeste 0 -- -- 80
2020-03-24 09:00:00 8.8 6 Este 20 Sudeste 0 -- -- 90
2020-03-24 08:00:00 7.6 8 Nordeste 18 Este 0 -- -- 93
2020-03-24 07:00:00 7.5 6 Nordeste 22 Este 0 -- -- 95
2020-03-24 06:00:00 7.1 5 Este 16 Este 0 -- -- 95
2020-03-24 05:00:00 7 4 Nordeste 13 Nordeste 0 -- -- 94
2020-03-24 04:00:00 6.3 0 Calma 6 Norte 0.2 -- -- 94
2020-03-24 03:00:00 6.8 2 Nordeste 9 Nordeste 0 -- -- 94
2020-03-24 02:00:00 7 0 Calma 10 Este 0 -- -- 93
2020-03-24 01:00:00 7.5 4 Nordeste 10 Este 0 -- -- 93
2020-03-24 00:00:00 7.7 2 Este 11 Noroeste 0.4 -- -- 91
2020-03-23 23:00:00 8.2 5 Nordeste 14 Norte 1.4 -- -- 94
2020-03-23 22:00:00 8.3 4 Este 13 Este 0.8 -- -- 92
2020-03-23 21:00:00 8.7 4 Norte 15 Sudeste 5 -- -- 91
2020-03-23 20:00:00 10.8 10 Sudeste 22 Sur 0.2 -- -- 78
2020-03-23 19:00:00 11.7 4 Este 16 Este 0 -- -- 62
2020-03-23 18:00:00 12.2 8 Nordeste 18 Norte 0 -- -- 59
2020-03-23 17:00:00 11.9 6 Este 33 Este 0 -- -- 69
2020-03-23 16:00:00 13.6 8 Este 19 Este 0 -- -- 61
2020-03-23 15:00:00 11.6 5 Sudeste 30 Sudeste 0 -- -- 78
2020-03-23 14:00:00 13.8 9 Nordeste 21 Este 0 -- -- 58
2020-03-23 13:00:00 15.4 8 Sudeste 22 Sudeste 0 -- -- 60
2020-03-23 12:00:00 12.9 8 Este 17 Este 0 -- -- 69
2020-03-23 11:00:00 11.8 9 Este 19 Este 0 -- -- 73
2020-03-23 10:00:00 10.7 8 Este 18 Sudeste 0 -- -- 80
2020-03-23 09:00:00 7.4 2 Nordeste 6 Norte 0 -- -- 95
2020-03-23 08:00:00 6.4 0 Calma 4 Noroeste 0 -- -- 93
2020-03-23 07:00:00 7 0 Calma 4 Norte 0 -- -- 91
2020-03-23 06:00:00 7.3 0 Calma 2 Noroeste 0 -- -- 91
2020-03-23 05:00:00 7.6 0 Calma 4 Noroeste 0 -- -- 93
2020-03-23 04:00:00 7.5 0 Calma 4 Noroeste 0 -- -- 92
2020-03-23 03:00:00 7.7 0 Calma 3 Sudoeste 0 -- -- 91
2020-03-23 02:00:00 7.7 0 Calma 8 Nordeste 0 -- -- 87
2020-03-23 01:00:00 7.3 2 Norte 7 Norte 0 -- -- 90
2020-03-23 00:00:00 7.1 4 Noroeste 10 Noroeste 0 -- -- 91
2020-03-22 23:00:00 7.5 4 Noroeste 8 Noroeste 0 -- -- 92
2020-03-22 22:00:00 7.9 2 Noroeste 8 Oeste 0 -- -- 89
2020-03-22 21:00:00 8.8 0 Calma 15 Norte 0.4 -- -- 89
2020-03-22 20:00:00 9.6 0 Calma 5 Noroeste 0 -- -- 81
2020-03-22 19:00:00 10.7 0 Calma 6 Este 0 -- -- 74
2020-03-22 18:00:00 12.1 4 Sudeste 14 Sudeste 0 -- -- 72
2020-03-22 17:00:00 13.2 4 Sur 21 Este 0 -- -- 66
2020-03-22 16:00:00 12.8 4 Nordeste 19 Este 0 -- -- 62
2020-03-22 15:00:00 13.1 4 Sudeste 15 Este 0 -- -- 68
2020-03-22 14:00:00 11.9 3 Sudeste 10 Este 0 -- -- 64
2020-03-22 13:00:00 10.5 6 Este 15 Este 0 -- -- 72
2020-03-22 12:00:00 10.9 6 Este 18 Sudeste 0 -- -- 73
2020-03-22 11:00:00 11.2 6 Nordeste 19 Nordeste 0 -- -- 80
2020-03-22 10:00:00 9 6 Nordeste 18 Nordeste 0 -- -- 91
2020-03-22 09:00:00 6.9 2 Norte 12 Nordeste 0 -- -- 96
2020-03-22 08:00:00 6.1 4 Nordeste 10 Nordeste 0 -- -- 97
2020-03-22 07:00:00 6.1 0 Calma 4 Este 0.2 -- -- 97
2020-03-22 06:00:00 6 0 Calma 6 Sudeste 0 -- -- 97
2020-03-22 05:00:00 6 2 Este 8 Este 0.2 -- -- 97
2020-03-22 04:00:00 6.1 3 Este 9 Sudeste 0.2 -- -- 97
2020-03-22 03:00:00 6.1 4 Este 10 Este 0 -- -- 97
2020-03-22 02:00:00 6.2 4 Este 10 Este 0.2 -- -- 97
2020-03-22 01:00:00 6.2 3 Este 5 Este 0 -- -- 97
2020-03-22 00:00:00 6.3 2 Este 5 Este 0 -- -- 96
2020-03-21 23:00:00 6.5 0 Calma 4 Sudeste 0 -- -- 96
2020-03-21 22:00:00 6.5 0 Calma 4 Oeste 0 -- -- 96
2020-03-21 21:00:00 6.6 0 Calma 5 Sudeste 0 -- -- 95
2020-03-21 20:00:00 6.8 0 Calma 7 Este 0.2 -- -- 94
2020-03-21 19:00:00 7.3 2 Este 5 Sudeste 0.6 -- -- 92
2020-03-21 18:00:00 7.6 2 Sudeste 16 Este 1 -- -- 93
2020-03-21 17:00:00 8.1 12 Este 24 Sudeste 0.4 -- -- 91
2020-03-21 16:00:00 8 8 Sudeste 23 Sudeste 0.4 -- -- 93
2020-03-21 15:00:00 8.9 8 Sudeste 21 Sudeste 0.2 -- -- 90
2020-03-21 14:00:00 8.8 8 Sur 24 Sudeste 0.6 -- -- 89
2020-03-21 13:00:00 9.7 6 Sur 17 Sudeste 0.8 -- -- 86
2020-03-21 12:00:00 11.4 8 Sudeste 22 Sudeste 0 -- -- 76
2020-03-21 11:00:00 11 6 Sur 17 Sudeste 0 -- -- 77
2020-03-21 10:00:00 8.8 3 Sur 17 Sudoeste 0 -- -- 91
2020-03-21 09:00:00 7.1 3 Sudeste 8 Sudoeste 0 -- -- 98
2020-03-21 08:00:00 5.1 0 Calma 10 Sudoeste 0.2 -- -- 95
2020-03-21 07:00:00 5.7 7 Sudoeste 13 Sudoeste 0 -- -- 96
2020-03-21 06:00:00 6.5 4 Sudoeste 16 Sudoeste 0 -- -- 95
2020-03-21 05:00:00 7 6 Oeste 16 Oeste 0 -- -- 96
2020-03-21 04:00:00 7.4 9 Oeste 20 Oeste 0 -- -- 96
2020-03-21 03:00:00 8.1 8 Oeste 17 Sudoeste 0.2 -- -- 97
2020-03-21 02:00:00 8.5 8 Oeste 27 Oeste 1.8 -- -- 97
2020-03-21 01:00:00 9.3 8 Noroeste 36 Sudeste 9 -- -- 96
2020-03-21 00:00:00 10.2 7 Sudeste 27 Sudeste 6.4 -- -- 96
2020-03-20 23:00:00 10.7 8 Sur 22 Sur 8.8 -- -- 96
2020-03-20 22:00:00 11 7 Sur 33 Sudoeste 8 -- -- 96
2020-03-20 21:00:00 12.1 4 Sudeste 12 Sudeste 0.8 -- -- 89
2020-03-20 20:00:00 12.5 2 Sudeste 7 Sudeste 0 -- -- 87
2020-03-20 19:00:00 13.1 2 Sudeste 9 Sudoeste 0 -- -- 83
2020-03-20 18:00:00 13.8 2 Sur 14 Sudoeste 0 -- -- 79
2020-03-20 17:00:00 13.9 3 Sur 9 Sur 0 -- -- 80
2020-03-20 16:00:00 13.3 3 Sudeste 9 Sudeste 0.2 -- -- 89
2020-03-20 15:00:00 12.8 5 Sudeste 19 Sudeste 1.2 -- -- 88
2020-03-20 14:00:00 14.9 8 Sudeste 19 Sudeste 0 -- -- 69
2020-03-20 13:00:00 14.4 5 Sudeste 17 Sudeste 0 -- -- 75
2020-03-20 12:00:00 13.3 6 Sudeste 15 Este 0 -- -- 75
2020-03-20 11:00:00 12.5 5 Sudeste 18 Este 0 -- -- 81
2020-03-20 10:00:00 12.3 3 Sudeste 7 Este 0 -- -- 87
2020-03-20 09:00:00 10.8 2 Sudeste 8 Este 0 -- -- 90
2020-03-20 08:00:00 10.1 0 Calma 4 Noroeste 0 -- -- 89
2020-03-20 07:00:00 10 2 Noroeste 4 Norte 0 -- -- 90
2020-03-20 06:00:00 9.8 0 Calma 2 Noroeste 0 -- -- 90
2020-03-20 05:00:00 9.9 0 Calma 2 Noroeste 0 -- -- 88
2020-03-20 04:00:00 10.1 0 Calma 4 Sudeste 0 -- -- 88
2020-03-20 03:00:00 10.4 0 Calma 2 Sur 0 -- -- 87
2020-03-20 02:00:00 10.7 0 Calma 4 Norte 0 -- -- 86
2020-03-20 01:00:00 11 0 Calma 2 Noroeste 0 -- -- 86
2020-03-20 00:00:00 11.3 0 Calma 8 Sudeste 0 -- -- 82
2020-03-19 23:00:00 11.7 0 Calma 2 Sur 0 -- -- 81
2020-03-19 22:00:00 12.3 0 Calma 2 Noroeste 0 -- -- 79
2020-03-19 21:00:00 13.6 0 Calma 4 Oeste 0 -- -- 74
2020-03-19 20:00:00 15.1 3 Noroeste 4 Noroeste 0 -- -- 68
2020-03-19 19:00:00 16.3 0 Calma 8 Sudeste 0 -- -- 62
2020-03-19 18:00:00 17.2 3 Sudeste 13 Sudeste 0 -- -- 59
2020-03-19 17:00:00 18.6 5 Este 13 Sudeste 0 -- -- 55
2020-03-19 16:00:00 18.6 6 Nordeste 13 Este 0 -- -- 53
2020-03-19 15:00:00 18.6 3 Norte 18 Este 0 -- -- 55
2020-03-19 14:00:00 18.6 6 Este 16 Este 0 -- -- 58
2020-03-19 13:00:00 17.3 6 Este 14 Nordeste 0 -- -- 61
2020-03-19 12:00:00 16.1 6 Este 14 Este 0 -- -- 66
2020-03-19 11:00:00 13.8 6 Nordeste 16 Este 0 -- -- 72
2020-03-19 10:00:00 12.9 5 Este 16 Este 0 -- -- 76
2020-03-19 09:00:00 10.4 4 Nordeste 10 Nordeste 0 -- -- 86
2020-03-19 08:00:00 9.2 2 Nordeste 11 Nordeste 0 -- -- 89
2020-03-19 07:00:00 8.4 3 Sur 8 Sudeste 0 -- -- 91
2020-03-19 06:00:00 8.3 2 Norte 6 Norte 0 -- -- 91
2020-03-19 05:00:00 8.9 3 Noroeste 4 Noroeste 0 -- -- 87
2020-03-19 04:00:00 9.7 0 Calma 4 Sudeste 0 -- -- 86
2020-03-19 03:00:00 10.4 0 Calma 10 Sudeste 0 -- -- 82
2020-03-19 02:00:00 10.8 4 Este 11 Este 0 -- -- 80
2020-03-19 01:00:00 11.8 2 Sur 12 Este 0 -- -- 75
2020-03-19 00:00:00 12.1 4 Este 8 Este 0 -- -- 74
2020-03-18 23:00:00 12.7 4 Este 13 Sudeste 0 -- -- 74
2020-03-18 22:00:00 13.5 4 Sudeste 11 Este 0 -- -- 70
2020-03-18 21:00:00 14 2 Este 6 Norte 0 -- -- 62
2020-03-18 20:00:00 16.1 0 Calma 8 Este 0 -- -- 62
2020-03-18 19:00:00 18.3 3 Sudeste 14 Sudeste 0 -- -- 54
2020-03-18 18:00:00 19.8 6 Este 25 Sudeste 0 -- -- 51
2020-03-18 17:00:00 20.2 9 Este 24 Sudeste 0 -- -- 49
2020-03-18 16:00:00 20.2 9 Nordeste 23 Este 0 -- -- 49
2020-03-18 15:00:00 20.5 7 Este 26 Este 0 -- -- 50
2020-03-18 14:00:00 19.7 11 Este 30 Sudeste 0 -- -- 50
2020-03-18 13:00:00 18.8 10 Este 27 Este 0 -- -- 56
2020-03-18 12:00:00 17.2 13 Este 35 Este 0 -- -- 58
2020-03-18 11:00:00 15 10 Este 23 Este 0 -- -- 64
2020-03-18 10:00:00 12.3 5 Este 14 Este 0 -- -- 75
2020-03-18 09:00:00 11 4 Este 18 Este 0 -- -- 78
2020-03-18 08:00:00 10 3 Este 14 Este 0 -- -- 83
2020-03-18 07:00:00 10 4 Sudeste 21 Este 0 -- -- 85
2020-03-18 06:00:00 10.3 5 Este 21 Este 0 -- -- 85
2020-03-18 05:00:00 10.6 6 Este 23 Este 0 -- -- 85
2020-03-18 04:00:00 10.4 5 Nordeste 19 Este 0 -- -- 85
2020-03-18 03:00:00 10.4 6 Este 17 Este 0 -- -- 82
2020-03-18 02:00:00 10.4 4 Este 17 Este 0 -- -- 78
2020-03-18 01:00:00 10.8 4 Sudeste 19 Nordeste 0 -- -- 73
2020-03-18 00:00:00 10.9 6 Este 19 Este 0 -- -- 67
2020-03-17 23:00:00 10.7 5 Este 18 Nordeste 0 -- -- 64
2020-03-17 22:00:00 10.4 4 Sudeste 18 Nordeste 0.2 -- -- 64
2020-03-17 21:00:00 11.1 4 Este 27 Nordeste 0 -- -- 62
2020-03-17 20:00:00 12 2 Nordeste 14 Este 0 -- -- 50
2020-03-17 19:00:00 12.8 8 Este 16 Este 0 -- -- 47
2020-03-17 18:00:00 13.7 10 Sudeste 31 Este 0 -- -- 44
2020-03-17 17:00:00 14.2 12 Este 30 Sudeste 0 -- -- 43
2020-03-17 16:00:00 13.9 14 Este 31 Este 0 -- -- 51
2020-03-17 15:00:00 12.4 11 Este 35 Sudeste 0 -- -- 58
2020-03-17 14:00:00 12.2 15 Sudeste 39 Sudeste 0 -- -- 65
2020-03-17 13:00:00 11.3 13 Sudeste 34 Este 0 -- -- 66
2020-03-17 12:00:00 9.4 15 Este 39 Este 0 -- -- 77
2020-03-17 11:00:00 7.2 11 Sudeste 34 Este 0 -- -- 92
2020-03-17 10:00:00 4.8 14 Este 26 Este 0.4 -- -- 97
2020-03-17 09:00:00 4.2 12 Este 24 Sudeste 0.4 -- -- 96
2020-03-17 08:00:00 4.1 7 Nordeste 18 Este 0.8 -- -- 95
2020-03-17 07:00:00 3.8 4 Este 11 Este 0 -- -- 94
2020-03-17 06:00:00 4.2 3 Nordeste 9 Este 0 -- -- 93
2020-03-17 05:00:00 4.2 2 Este 9 Nordeste 0 -- -- 93
2020-03-17 04:00:00 4.3 3 Este 9 Nordeste 0 -- -- 93
2020-03-17 03:00:00 4.4 5 Norte 9 Noroeste 0 -- -- 93
2020-03-17 02:00:00 4 3 Noroeste 12 Noroeste 0 -- -- 93
2020-03-17 01:00:00 3.9 3 Noroeste 24 Norte 0 -- -- 92
2020-03-17 00:00:00 4.6 8 Norte 26 Noroeste 0 -- -- 89
2020-03-16 23:00:00 4.9 3 Noroeste 24 Oeste 0.4 -- -- 93
2020-03-16 22:00:00 4.9 3 Norte 45 Noroeste 0.6 -- -- 92
2020-03-16 21:00:00 5.3 17 Noroeste 40 Norte 0.4 -- -- 89
2020-03-16 20:00:00 5.5 13 Noroeste 40 Noroeste 0.8 -- -- 89
2020-03-16 19:00:00 6.9 10 Noroeste 35 Oeste 0.4 -- -- 84
2020-03-16 18:00:00 7.3 19 Noroeste 52 Noroeste 0.6 -- -- 80
2020-03-16 17:00:00 11.1 19 Noroeste 46 Noroeste 0 -- -- 53
2020-03-16 16:00:00 10.8 26 Noroeste 48 Noroeste 0 -- -- 50
2020-03-16 15:00:00 10.6 21 Noroeste 43 Noroeste 0 -- -- 53
2020-03-16 14:00:00 10.2 21 Noroeste 42 Norte 0 -- -- 52
2020-03-16 13:00:00 11.2 18 Noroeste 36 Noroeste 0 -- -- 51
2020-03-16 12:00:00 10.4 14 Noroeste 30 Noroeste 0 -- -- 53
2020-03-16 11:00:00 8.9 13 Noroeste 33 Norte 0 -- -- 58
2020-03-16 10:00:00 7.3 15 Norte 35 Norte 0 -- -- 62
2020-03-16 09:00:00 4.4 12 Noroeste 27 Noroeste 0 -- -- 79
2020-03-16 08:00:00 2.7 15 Noroeste 28 Noroeste 0 -- -- 86
2020-03-16 07:00:00 2.8 8 Oeste 23 Oeste 0 -- -- 84
2020-03-16 06:00:00 3.4 12 Noroeste 31 Noroeste 0 -- -- 76
2020-03-16 05:00:00 3.6 17 Noroeste 31 Norte 0 -- -- 72
2020-03-16 04:00:00 4 15 Noroeste 28 Noroeste 0 -- -- 73
2020-03-16 03:00:00 4.6 13 Noroeste 36 Noroeste 0 -- -- 72
2020-03-16 02:00:00 6.2 20 Noroeste 42 Noroeste 0 -- -- 65
2020-03-16 01:00:00 8.2 18 Noroeste 46 Noroeste 0 -- -- 63
2020-03-16 00:00:00 10.2 20 Noroeste 36 Noroeste 0 -- -- 72
2020-03-15 23:00:00 12.3 12 Noroeste 26 Noroeste 0 -- -- 64
2020-03-15 22:00:00 13.6 13 Noroeste 28 Noroeste 0 -- -- 68
2020-03-15 21:00:00 14.8 12 Noroeste 28 Sudoeste 0 -- -- 73
2020-03-15 20:00:00 15.8 9 Sudoeste 26 Sudoeste 0 -- -- 68
2020-03-15 19:00:00 16.8 9 Sudoeste 25 Oeste 0 -- -- 62
2020-03-15 18:00:00 19 12 Sudoeste 28 Sudoeste 0 -- -- 54
2020-03-15 17:00:00 20.2 8 Oeste 27 Sudoeste 0 -- -- 51
2020-03-15 16:00:00 20.5 8 Sudoeste 23 Oeste 0 -- -- 51
2020-03-15 15:00:00 20.7 10 Oeste 24 Sudoeste 0 -- -- 53
2020-03-15 14:00:00 21.2 8 Sur 18 Sur 0 -- -- 49
2020-03-15 13:00:00 20.4 8 Oeste 16 Oeste 0 -- -- 57
2020-03-15 12:00:00 19.8 7 Sudoeste 17 Sudoeste 0 -- -- 60
2020-03-15 11:00:00 18.8 9 Oeste 16 Oeste 0 -- -- 64
2020-03-15 10:00:00 15.1 3 Nordeste 9 Noroeste 0 -- -- 82
2020-03-15 09:00:00 10.4 0 Calma 2 Oeste 0 -- -- 97
2020-03-15 08:00:00 8.6 0 Calma 3 Este 0 -- -- 93
2020-03-15 07:00:00 8.8 0 Calma 3 Noroeste 0 -- -- 91
2020-03-15 06:00:00 9.1 2 Oeste 4 Noroeste 0 -- -- 90
2020-03-15 05:00:00 9.6 2 Noroeste 3 Noroeste 0 -- -- 87
2020-03-15 04:00:00 10 0 Calma 2 Sudoeste 0 -- -- 86
2020-03-15 03:00:00 10.5 0 Calma 2 Sudoeste 0 -- -- 85
2020-03-15 02:00:00 11 0 Calma 2 Oeste 0 -- -- 82
2020-03-15 01:00:00 11.9 0 Calma 2 Este 0 -- -- 80
2020-03-15 00:00:00 12.9 0 Calma 6 Noroeste 0 -- -- 76
2020-03-14 23:00:00 14 4 Noroeste 12 Noroeste 0 -- -- 74
2020-03-14 22:00:00 14.7 4 Noroeste 10 Noroeste 0 -- -- 78
2020-03-14 21:00:00 15.6 3 Oeste 6 Oeste 0 -- -- 75
2020-03-14 20:00:00 17.2 5 Oeste 9 Sudoeste 0 -- -- 69
2020-03-14 19:00:00 19.2 4 Sudoeste 14 Sudoeste 0 -- -- 60
2020-03-14 18:00:00 21.4 5 Sur 14 Sur 0 -- -- 52
2020-03-14 17:00:00 22.6 5 Sudoeste 16 Sur 0 -- -- 49
2020-03-14 16:00:00 22.5 6 Sudoeste 17 Sudoeste 0 -- -- 51
2020-03-14 15:00:00 22.1 6 Sur 14 Sudoeste 0 -- -- 51
2020-03-14 14:00:00 21.7 6 Sur 14 Sudoeste 0 -- -- 55
2020-03-14 13:00:00 21 5 Sur 14 Oeste 0 -- -- 57
2020-03-14 12:00:00 21.2 6 Sudoeste 16 Sur 0 -- -- 55
2020-03-14 11:00:00 19.7 4 Sudeste 10 Sudeste 0 -- -- 62
2020-03-14 10:00:00 15.7 2 Este 4 Sudeste 0 -- -- 74
2020-03-14 09:00:00 11.1 0 Calma 2 Oeste 0 -- -- 94
2020-03-14 08:00:00 8.5 0 Calma 2 Noroeste 0 -- -- 93
2020-03-14 07:00:00 8.5 0 Calma 2 Sudoeste 0 -- -- 91
2020-03-14 06:00:00 8.5 0 Calma 2 Sudoeste 0 -- -- 87
2020-03-14 05:00:00 8.7 0 Calma 2 Sudoeste 0 -- -- 81
2020-03-14 04:00:00 8.9 0 Calma 2 Sudoeste 0 -- -- 81
2020-03-14 03:00:00 9.2 0 Calma 4 Noroeste 0 -- -- 77
2020-03-14 02:00:00 9.7 0 Calma 5 Oeste 0 -- -- 74
2020-03-14 01:00:00 10.7 0 Calma 10 Oeste 0 -- -- 72
2020-03-14 00:00:00 11.1 4 Oeste 11 Oeste 0 -- -- 71
2020-03-13 23:00:00 11.9 0 Calma 11 Noroeste 0 -- -- 73
2020-03-13 22:00:00 13 4 Oeste 9 Oeste 0 -- -- 71
2020-03-13 21:00:00 14.5 6 Noroeste 18 Noroeste 0 -- -- 71
2020-03-13 20:00:00 16.3 9 Oeste 18 Oeste 0 -- -- 64
2020-03-13 19:00:00 19 9 Noroeste 18 Noroeste 0 -- -- 50
2020-03-13 18:00:00 21.4 8 Oeste 21 Noroeste 0 -- -- 44
2020-03-13 17:00:00 22 8 Noroeste 22 Noroeste 0 -- -- 43
2020-03-13 16:00:00 21.8 11 Noroeste 23 Noroeste 0 -- -- 42
2020-03-13 15:00:00 21.9 11 Noroeste 22 Oeste 0 -- -- 42
2020-03-13 14:00:00 21.7 9 Oeste 22 Noroeste 0 -- -- 43
2020-03-13 13:00:00 21.1 11 Oeste 18 Oeste 0 -- -- 53
2020-03-13 12:00:00 20.8 8 Sudoeste 18 Sudoeste 0 -- -- 57
2020-03-13 11:00:00 18.9 8 Oeste 17 Oeste 0 -- -- 63
2020-03-13 10:00:00 16.1 4 Oeste 12 Oeste 0 -- -- 78
2020-03-13 09:00:00 12.1 2 Noroeste 6 Oeste 0 -- -- 97
2020-03-13 08:00:00 9.4 0 Calma 4 Oeste 0 -- -- 94
2020-03-13 07:00:00 9.6 2 Oeste 4 Noroeste 0 -- -- 94
2020-03-13 06:00:00 9.8 0 Calma 6 Oeste 0 -- -- 94
2020-03-13 05:00:00 9.9 3 Noroeste 6 Oeste 0 -- -- 92
2020-03-13 04:00:00 10.4 0 Calma 9 Oeste 0 -- -- 90
2020-03-13 03:00:00 10.9 4 Oeste 9 Oeste 0 -- -- 89
2020-03-13 02:00:00 10.6 0 Calma 4 Noroeste 0 -- -- 88
2020-03-13 01:00:00 10.9 3 Noroeste 4 Oeste 0 -- -- 86
2020-03-13 00:00:00 11.5 2 Noroeste 5 Norte 0 -- -- 83
2020-03-12 23:00:00 12.4 3 Oeste 5 Oeste 0 -- -- 79
2020-03-12 22:00:00 13.3 2 Noroeste 4 Oeste 0 -- -- 77
2020-03-12 21:00:00 14.4 0 Calma 5 Oeste 0 -- -- 70
2020-03-12 20:00:00 16.7 4 Sudoeste 6 Oeste 0 -- -- 64
2020-03-12 19:00:00 18.9 2 Sudoeste 10 Sudoeste 0 -- -- 55
2020-03-12 18:00:00 19.7 2 Sudoeste 14 Sudoeste 0 -- -- 57
2020-03-12 17:00:00 20.2 8 Oeste 19 Sudoeste 0 -- -- 54
2020-03-12 16:00:00 22.2 6 Sudoeste 19 Sudoeste 0 -- -- 46
2020-03-12 15:00:00 22.7 9 Sudoeste 18 Sudoeste 0 -- -- 43
2020-03-12 14:00:00 22.8 6 Sur 19 Sudoeste 0 -- -- 42
2020-03-12 13:00:00 21.6 7 Sur 17 Sudeste 0 -- -- 45
2020-03-12 12:00:00 19.6 5 Sur 16 Sudoeste 0 -- -- 49
2020-03-12 11:00:00 17.6 8 Sur 15 Sur 0 -- -- 51
2020-03-12 10:00:00 15.4 4 Sur 15 Sudeste 0 -- -- 57
2020-03-12 09:00:00 12.4 2 Noroeste 5 Noroeste 0 -- -- 69
2020-03-12 08:00:00 11.4 0 Calma 3 Noroeste 0 -- -- 74
2020-03-12 07:00:00 11.5 0 Calma 4 Noroeste 0 -- -- 73
2020-03-12 06:00:00 11.4 2 Noroeste 5 Oeste 0 -- -- 73
2020-03-12 05:00:00 11.1 3 Noroeste 5 Noroeste 0 -- -- 73
2020-03-12 04:00:00 11.3 2 Noroeste 3 Oeste 0 -- -- 72
2020-03-12 03:00:00 12.2 0 Calma 4 Noroeste 0 -- -- 68
2020-03-12 02:00:00 13.1 0 Calma 4 Este 0 -- -- 64
2020-03-12 01:00:00 14.4 0 Calma 8 Sudeste 0 -- -- 59
2020-03-12 00:00:00 14.5 2 Sudeste 7 Sudeste 0 -- -- 58
2020-03-11 23:00:00 14.4 0 Calma 7 Sudeste 0 -- -- 63
2020-03-11 22:00:00 14.6 0 Calma 4 Nordeste 0 -- -- 64
2020-03-11 21:00:00 16.1 2 Noroeste 5 Nordeste 0 -- -- 59
2020-03-11 20:00:00 19.1 0 Calma 6 Este 0 -- -- 52
2020-03-11 19:00:00 22.1 5 Este 12 Este 0 -- -- 42
2020-03-11 18:00:00 24.2 6 Sudeste 15 Sudeste 0 -- -- 38
2020-03-11 17:00:00 24.7 4 Sudeste 13 Sudeste 0 -- -- 38
2020-03-11 16:00:00 25.5 9 Este 19 Sudeste 0 -- -- 36
2020-03-11 15:00:00 25.5 7 Sudeste 19 Este 0 -- -- 37
2020-03-11 14:00:00 25.3 8 Sudeste 21 Este 0 -- -- 37
2020-03-11 13:00:00 24.7 12 Este 22 Este 0 -- -- 37
2020-03-11 12:00:00 23.8 10 Este 25 Este 0 -- -- 40
2020-03-11 11:00:00 23.2 8 Este 19 Este 0 -- -- 40
2020-03-11 10:00:00 19.2 4 Este 9 Este 0 -- -- 50
2020-03-11 09:00:00 13.5 0 Calma 3 Noroeste 0 -- -- 72
2020-03-11 08:00:00 10 0 Calma 3 Noroeste 0 -- -- 80
2020-03-11 07:00:00 10.3 0 Calma 5 Noroeste 0 -- -- 79
2020-03-11 06:00:00 10.5 0 Calma 2 Noroeste 0 -- -- 78
2020-03-11 05:00:00 11.3 0 Calma 2 Oeste 0 -- -- 74
2020-03-11 04:00:00 11.6 0 Calma 6 Nordeste 0 -- -- 73
2020-03-11 03:00:00 11.3 0 Calma 3 Norte 0 -- -- 75
2020-03-11 02:00:00 11.4 0 Calma 3 Sudoeste 0 -- -- 74
2020-03-11 01:00:00 11.8 0 Calma 2 Noroeste 0 -- -- 73
2020-03-11 00:00:00 12.4 0 Calma 2 Oeste 0 -- -- 71
2020-03-10 23:00:00 13.2 0 Calma 6 Noroeste 0 -- -- 68
2020-03-10 22:00:00 14.2 2 Noroeste 5 Noroeste 0 -- -- 64
2020-03-10 21:00:00 16 2 Noroeste 5 Noroeste 0 -- -- 60
2020-03-10 20:00:00 18.9 0 Calma 8 Este 0 -- -- 51
2020-03-10 19:00:00 22.3 5 Este 12 Este 0 -- -- 39
2020-03-10 18:00:00 24.4 4 Este 14 Este 0 -- -- 38
2020-03-10 17:00:00 24.5 4 Sur 12 Sudeste 0 -- -- 37
2020-03-10 16:00:00 24 6 Nordeste 15 Este 0 -- -- 37
2020-03-10 15:00:00 24.1 6 Sudeste 18 Sudeste 0 -- -- 36
2020-03-10 14:00:00 23.5 7 Sudeste 16 Sur 0 -- -- 37
2020-03-10 13:00:00 23 5 Este 16 Sudeste 0 -- -- 38
2020-03-10 12:00:00 22.7 6 Sudeste 23 Este 0 -- -- 37
2020-03-10 11:00:00 20.6 6 Este 16 Sudeste 0 -- -- 41
2020-03-10 10:00:00 17 5 Nordeste 20 Nordeste 0 -- -- 41
2020-03-10 09:00:00 12.5 5 Sudeste 10 Sudeste 0 -- -- 55
2020-03-10 08:00:00 8.9 2 Sur 5 Sudoeste 0 -- -- 61
2020-03-10 07:00:00 10.5 0 Calma 14 Norte 0 -- -- 55
2020-03-10 06:00:00 11.3 4 Nordeste 12 Noroeste 0 -- -- 47
2020-03-10 05:00:00 11.5 3 Norte 14 Norte 0 -- -- 46
2020-03-10 04:00:00 10.3 7 Norte 17 Norte 0 -- -- 50
2020-03-10 03:00:00 9.1 4 Noroeste 10 Noroeste 0 -- -- 65
2020-03-10 02:00:00 10.1 2 Sur 13 Noroeste 0 -- -- 63
2020-03-10 01:00:00 11 9 Noroeste 17 Noroeste 0 -- -- 60
2020-03-10 00:00:00 11.9 4 Oeste 12 Noroeste 0 -- -- 56
2020-03-09 23:00:00 12.8 8 Noroeste 18 Noroeste 0 -- -- 50
2020-03-09 22:00:00 13.6 10 Noroeste 27 Noroeste 0 -- -- 45
2020-03-09 21:00:00 13.9 11 Noroeste 24 Oeste 0 -- -- 41
2020-03-09 20:00:00 14.9 10 Noroeste 21 Noroeste 0 -- -- 38
2020-03-09 19:00:00 17 8 Noroeste 26 Norte 0 -- -- 33
2020-03-09 18:00:00 18.8 12 Noroeste 25 Noroeste 0 -- -- 32
2020-03-09 17:00:00 19.4 13 Norte 28 Noroeste 0 -- -- 29
2020-03-09 16:00:00 19.4 8 Norte 23 Norte 0 -- -- 32
2020-03-09 15:00:00 19.8 9 Noroeste 20 Nordeste 0 -- -- 29
2020-03-09 14:00:00 19.4 6 Nordeste 22 Norte 0 -- -- 28
2020-03-09 13:00:00 19.3 10 Nordeste 19 Nordeste 0 -- -- 26
2020-03-09 12:00:00 20 5 Sudeste 18 Este 0 -- -- 28
2020-03-09 11:00:00 18.7 6 Sudeste 17 Noroeste 0 -- -- 32
2020-03-09 10:00:00 14.4 11 Noroeste 21 Noroeste 0 -- -- 36
2020-03-09 09:00:00 10.2 3 Sur 9 Sur 0 -- -- 72
2020-03-09 08:00:00 9.3 4 Oeste 27 Noroeste 0 -- -- 71
2020-03-09 07:00:00 9.1 8 Noroeste 21 Noroeste 0 -- -- 70
2020-03-09 06:00:00 9.3 10 Noroeste 26 Noroeste 0 -- -- 70
2020-03-09 05:00:00 9.5 10 Noroeste 22 Noroeste 0 -- -- 77
2020-03-09 04:00:00 9.5 7 Noroeste 19 Noroeste 0 -- -- 87
2020-03-09 03:00:00 9.9 9 Noroeste 27 Norte 0 -- -- 86
2020-03-09 02:00:00 9 8 Norte 23 Noroeste 0 -- -- 87
2020-03-09 01:00:00 9.4 0 Calma 11 Noroeste 0 -- -- 75
2020-03-09 00:00:00 9.8 0 Calma 13 Noroeste 0 -- -- 70
2020-03-08 23:00:00 11 0 Calma 10 Norte 0 -- -- 61
2020-03-08 22:00:00 12.1 3 Norte 17 Noroeste 0 -- -- 61
2020-03-08 21:00:00 13 6 Noroeste 15 Noroeste 0 -- -- 58
2020-03-08 20:00:00 14.5 5 Oeste 13 Oeste 0 -- -- 51
2020-03-08 19:00:00 16.1 4 Noroeste 13 Norte 0 -- -- 46
2020-03-08 18:00:00 18 9 Norte 25 Noroeste 0 -- -- 32
2020-03-08 17:00:00 19.2 12 Noroeste 22 Oeste 0 -- -- 28
2020-03-08 16:00:00 19.6 9 Oeste 21 Oeste 0 -- -- 29
2020-03-08 15:00:00 19.6 10 Oeste 22 Noroeste 0 -- -- 28
2020-03-08 14:00:00 19.3 9 Oeste 22 Oeste 0 -- -- 28
2020-03-08 13:00:00 18.9 3 Noroeste 13 Oeste 0 -- -- 30
2020-03-08 12:00:00 18.9 5 Oeste 13 Oeste 0 -- -- 32
2020-03-08 11:00:00 16.6 5 Noroeste 14 Oeste 0 -- -- 36
2020-03-08 10:00:00 11.8 2 Sudeste 6 Sudeste 0 -- -- 54
2020-03-08 09:00:00 6.1 0 Calma 7 Oeste 0 -- -- 75
2020-03-08 08:00:00 2.9 3 Oeste 6 Oeste 0 -- -- 85
2020-03-08 07:00:00 3.1 0 Calma 2 Noroeste 0 -- -- 85
2020-03-08 06:00:00 3.3 0 Calma 2 Noroeste 0 -- -- 83
2020-03-08 05:00:00 3.7 0 Calma 4 Noroeste 0 -- -- 82
2020-03-08 04:00:00 4.2 0 Calma 2 Oeste 0 -- -- 82
2020-03-08 03:00:00 4.6 0 Calma 4 Noroeste 0 -- -- 80
2020-03-08 02:00:00 5 3 Noroeste 5 Noroeste 0 -- -- 79
2020-03-08 01:00:00 5.7 0 Calma 6 Noroeste 0 -- -- 75
2020-03-08 00:00:00 7 4 Noroeste 8 Noroeste 0 -- -- 69
2020-03-07 23:00:00 8.4 4 Noroeste 10 Norte 0 -- -- 62
2020-03-07 22:00:00 10.2 6 Noroeste 13 Nordeste 0 -- -- 59
2020-03-07 21:00:00 10.2 3 Noroeste 9 Noroeste 0 -- -- 58
2020-03-07 20:00:00 12.4 6 Noroeste 10 Norte 0 -- -- 51
2020-03-07 19:00:00 15.2 6 Norte 14 Nordeste 0 -- -- 42
2020-03-07 18:00:00 16.8 8 Nordeste 17 Norte 0 -- -- 36
2020-03-07 17:00:00 17.2 8 Norte 22 Norte 0 -- -- 36
2020-03-07 16:00:00 16.7 8 Nordeste 21 Nordeste 0 -- -- 37
2020-03-07 15:00:00 16.7 9 Este 24 Nordeste 0 -- -- 39
2020-03-07 14:00:00 14.9 8 Nordeste 18 Nordeste 0 -- -- 40
2020-03-07 13:00:00 14.9 6 Este 20 Nordeste 0 -- -- 42
2020-03-07 12:00:00 14.4 8 Este 22 Este 0 -- -- 42
2020-03-07 11:00:00 12.3 9 Este 21 Nordeste 0 -- -- 48
2020-03-07 10:00:00 9.4 6 Nordeste 16 Este 0 -- -- 56
2020-03-07 09:00:00 6.1 2 Este 12 Norte 0 -- -- 68
2020-03-07 08:00:00 4.4 6 Noroeste 11 Noroeste 0 -- -- 75
2020-03-07 07:00:00 5.7 3 Norte 21 Norte 0 -- -- 67
2020-03-07 06:00:00 5.9 5 Nordeste 30 Norte 0 -- -- 67
2020-03-07 05:00:00 6.4 9 Norte 27 Norte 0 -- -- 64
2020-03-07 04:00:00 6.6 5 Norte 16 Noroeste 0 -- -- 64
2020-03-07 03:00:00 7.5 10 Noroeste 36 Norte 0 -- -- 63
2020-03-07 02:00:00 7.2 3 Sudoeste 27 Norte 0 -- -- 68
2020-03-07 01:00:00 7.2 8 Norte 26 Noroeste 0 -- -- 72
2020-03-07 00:00:00 7.4 15 Noroeste 30 Noroeste 0 -- -- 75
2020-03-06 23:00:00 8.1 10 Noroeste 27 Oeste 0 -- -- 73
2020-03-06 22:00:00 8.5 15 Noroeste 30 Noroeste 0 -- -- 73
2020-03-06 21:00:00 9.2 13 Noroeste 30 Noroeste 0 -- -- 71
2020-03-06 20:00:00 10.1 19 Noroeste 32 Noroeste 0 -- -- 66
2020-03-06 19:00:00 11.7 15 Noroeste 36 Noroeste 0 -- -- 60
2020-03-06 18:00:00 13.4 14 Noroeste 32 Noroeste 0 -- -- 54
2020-03-06 17:00:00 14 15 Noroeste 32 Noroeste 0 -- -- 55
2020-03-06 16:00:00 13.7 17 Norte 34 Norte 0 -- -- 52
2020-03-06 15:00:00 13.7 15 Noroeste 35 Noroeste 0 -- -- 56
2020-03-06 14:00:00 13.6 17 Noroeste 35 Norte 0 -- -- 56
2020-03-06 13:00:00 13.3 13 Noroeste 31 Noroeste 0 -- -- 58
2020-03-06 12:00:00 13.3 16 Noroeste 36 Noroeste 0 -- -- 61
2020-03-06 11:00:00 12.2 17 Noroeste 34 Norte 0 -- -- 61
2020-03-06 10:00:00 9.2 16 Noroeste 38 Noroeste 0 -- -- 79
2020-03-06 09:00:00 7.6 15 Noroeste 28 Noroeste 0 -- -- 89
2020-03-06 08:00:00 7.5 9 Oeste 24 Oeste 0.2 -- -- 95
2020-03-06 07:00:00 7.5 10 Noroeste 24 Oeste 0 -- -- 93
2020-03-06 06:00:00 7.1 12 Noroeste 26 Noroeste 0 -- -- 90
2020-03-06 05:00:00 6.5 13 Noroeste 30 Noroeste 0 -- -- 94
2020-03-06 04:00:00 6 10 Noroeste 24 Noroeste 0 -- -- 92
2020-03-06 03:00:00 6.2 9 Noroeste 23 Noroeste 0 -- -- 90
2020-03-06 02:00:00 6.7 11 Noroeste 29 Noroeste 0 -- -- 88
2020-03-06 01:00:00 6.8 10 Noroeste 27 Oeste 0 -- -- 86
2020-03-06 00:00:00 7.6 15 Noroeste 34 Noroeste 0 -- -- 83
2020-03-05 23:00:00 8.1 12 Noroeste 25 Oeste 0 -- -- 80
2020-03-05 22:00:00 8.7 12 Noroeste 27 Noroeste 0 -- -- 78
2020-03-05 21:00:00 9.5 10 Noroeste 21 Oeste 0 -- -- 76
2020-03-05 20:00:00 10.7 9 Noroeste 37 Noroeste 0 -- -- 70
2020-03-05 19:00:00 11.9 14 Noroeste 34 Oeste 0 -- -- 65
2020-03-05 18:00:00 13.7 16 Noroeste 35 Noroeste 0 -- -- 59
2020-03-05 17:00:00 14.3 19 Noroeste 35 Noroeste 0 -- -- 57
2020-03-05 16:00:00 14.4 18 Noroeste 35 Noroeste 0 -- -- 60
2020-03-05 15:00:00 13.7 16 Noroeste 35 Noroeste 0 -- -- 63
2020-03-05 14:00:00 13.4 18 Noroeste 37 Oeste 0 -- -- 66
2020-03-05 13:00:00 12.5 19 Noroeste 32 Noroeste 0.2 -- -- 83
2020-03-05 12:00:00 11.4 10 Noroeste 27 Sudoeste 0.4 -- -- 94
2020-03-05 11:00:00 11.6 11 Oeste 25 Oeste 0 -- -- 89
2020-03-05 10:00:00 11.4 13 Oeste 32 Oeste 0 -- -- 88
2020-03-05 09:00:00 10.3 10 Oeste 27 Oeste 0 -- -- 94
2020-03-05 08:00:00 9.9 10 Oeste 22 Oeste 0 -- -- 96
2020-03-05 07:00:00 9.8 14 Oeste 24 Sudoeste 0 -- -- 97
2020-03-05 06:00:00 9.4 8 Noroeste 17 Oeste 0 -- -- 96
2020-03-05 05:00:00 9.8 7 Noroeste 15 Oeste 0 -- -- 96
2020-03-05 04:00:00 10.2 12 Noroeste 23 Oeste 0 -- -- 96
2020-03-05 03:00:00 10.4 12 Oeste 21 Oeste 0 -- -- 96
2020-03-05 02:00:00 10.1 10 Oeste 23 Oeste 0 -- -- 95
2020-03-05 01:00:00 9.9 9 Oeste 15 Oeste 0 -- -- 92
2020-03-05 00:00:00 9.7 6 Oeste 13 Oeste 0 -- -- 89
2020-03-04 23:00:00 8.9 3 Oeste 8 Oeste 0 -- -- 89
2020-03-04 22:00:00 9.4 3 Oeste 5 Noroeste 0 -- -- 86
2020-03-04 21:00:00 10.3 4 Oeste 8 Oeste 0 -- -- 83
2020-03-04 20:00:00 12.3 3 Oeste 6 Oeste 0 -- -- 74
2020-03-04 19:00:00 14.5 4 Noroeste 20 Norte 0 -- -- 64
2020-03-04 18:00:00 16.5 12 Norte 22 Noroeste 0 -- -- 58
2020-03-04 17:00:00 17 13 Noroeste 26 Oeste 0 -- -- 58
2020-03-04 16:00:00 17.3 10 Noroeste 31 Norte 0 -- -- 61
2020-03-04 15:00:00 16.8 12 Noroeste 28 Noroeste 0 -- -- 61
2020-03-04 14:00:00 16.7 14 Noroeste 26 Oeste 0 -- -- 63
2020-03-04 13:00:00 16 14 Noroeste 27 Noroeste 0 -- -- 66
2020-03-04 12:00:00 14.7 10 Noroeste 26 Noroeste 0 -- -- 68
2020-03-04 11:00:00 12.9 10 Noroeste 21 Noroeste 0 -- -- 78
2020-03-04 10:00:00 12.5 8 Noroeste 20 Oeste 0 -- -- 83
2020-03-04 09:00:00 9.8 8 Oeste 16 Noroeste 0 -- -- 92
2020-03-04 08:00:00 9 4 Oeste 12 Noroeste 0 -- -- 92
2020-03-04 07:00:00 9.8 8 Noroeste 19 Noroeste 0 -- -- 87
2020-03-04 06:00:00 9.5 7 Noroeste 18 Oeste 0 -- -- 92
2020-03-04 05:00:00 10.3 5 Noroeste 17 Oeste 0 -- -- 89
2020-03-04 04:00:00 11.5 6 Noroeste 13 Oeste 0 -- -- 87
2020-03-04 03:00:00 11.8 6 Noroeste 14 Noroeste 0 -- -- 88
2020-03-04 02:00:00 12 9 Oeste 16 Noroeste 0 -- -- 89
2020-03-04 01:00:00 12.3 7 Noroeste 17 Noroeste 0 -- -- 93
2020-03-04 00:00:00 12.5 5 Oeste 17 Oeste 0 -- -- 91
2020-03-03 23:00:00 12.5 9 Oeste 17 Oeste 0 -- -- 90
2020-03-03 22:00:00 12.3 8 Oeste 16 Oeste 0 -- -- 90
2020-03-03 21:00:00 12.6 4 Oeste 17 Oeste 0 -- -- 87
2020-03-03 20:00:00 13.5 9 Noroeste 24 Oeste 0 -- -- 83
2020-03-03 19:00:00 14.2 11 Oeste 23 Noroeste 0 -- -- 82
2020-03-03 18:00:00 14.7 11 Oeste 34 Oeste 0 -- -- 82
2020-03-03 17:00:00 15 12 Oeste 27 Oeste 0 -- -- 79
2020-03-03 16:00:00 14.4 13 Oeste 29 Oeste 0 -- -- 80
2020-03-03 15:00:00 14.9 10 Oeste 29 Oeste 0 -- -- 75
2020-03-03 14:00:00 15.1 15 Oeste 33 Oeste 0 -- -- 74
2020-03-03 13:00:00 14.9 16 Oeste 39 Noroeste 0 -- -- 71
2020-03-03 12:00:00 12.8 18 Oeste 36 Oeste 0 -- -- 75
2020-03-03 11:00:00 13.1 14 Oeste 33 Oeste 0 -- -- 72
2020-03-03 10:00:00 10.2 13 Noroeste 28 Noroeste 0 -- -- 77
2020-03-03 09:00:00 7.9 14 Noroeste 25 Oeste 0 -- -- 89
2020-03-03 08:00:00 6.8 15 Noroeste 29 Noroeste 0 -- -- 92
2020-03-03 07:00:00 6.5 13 Oeste 24 Oeste 0 -- -- 90
2020-03-03 06:00:00 6.7 14 Oeste 30 Noroeste 0 -- -- 87
2020-03-03 05:00:00 6.8 15 Oeste 27 Oeste 0 -- -- 81
2020-03-03 04:00:00 6.9 15 Noroeste 27 Noroeste 0 -- -- 74
2020-03-03 03:00:00 6.5 12 Noroeste 26 Noroeste 0 -- -- 86
2020-03-03 02:00:00 6.4 8 Noroeste 15 Noroeste 0 -- -- 89
2020-03-03 01:00:00 6.9 7 Noroeste 16 Oeste 0 -- -- 86
2020-03-03 00:00:00 7.5 9 Noroeste 25 Noroeste 0 -- -- 83
2020-03-02 23:00:00 7.9 7 Noroeste 18 Noroeste 0 -- -- 83
2020-03-02 22:00:00 8.3 8 Noroeste 16 Oeste 0 -- -- 81
2020-03-02 21:00:00 8.8 5 Oeste 14 Noroeste 0 -- -- 78
2020-03-02 20:00:00 10 6 Noroeste 27 Noroeste 0 -- -- 72
2020-03-02 19:00:00 11.3 10 Noroeste 44 Noroeste 0 -- -- 64
2020-03-02 18:00:00 12.8 18 Noroeste 44 Noroeste 0 -- -- 58
2020-03-02 17:00:00 13.5 24 Noroeste 42 Oeste 0 -- -- 56
2020-03-02 16:00:00 13.9 24 Noroeste 39 Noroeste 0 -- -- 58
2020-03-02 15:00:00 13.6 17 Noroeste 43 Oeste 0 -- -- 62
2020-03-02 14:00:00 14 22 Noroeste 49 Noroeste 0 -- -- 62
2020-03-02 13:00:00 13.7 26 Noroeste 49 Oeste 0 -- -- 61
2020-03-02 12:00:00 14 22 Noroeste 49 Oeste 0 -- -- 64
2020-03-02 11:00:00 14.1 20 Noroeste 42 Oeste 0 -- -- 78
2020-03-02 10:00:00 12.7 16 Oeste 42 Oeste 0.2 -- -- 91
2020-03-02 09:00:00 12.1 17 Oeste 40 Noroeste 0.6 -- -- 97
2020-03-02 08:00:00 11.8 18 Oeste 40 Oeste 0.4 -- -- 97
2020-03-02 07:00:00 11.5 16 Oeste 46 Oeste 1 -- -- 97
2020-03-02 06:00:00 11.2 14 Oeste 32 Sudoeste 1.6 -- -- 96
2020-03-02 05:00:00 11.4 13 Oeste 40 Oeste 1.8 -- -- 94
2020-03-02 04:00:00 11.7 16 Oeste 34 Oeste 0.2 -- -- 90
2020-03-02 03:00:00 11.8 11 Sudoeste 38 Oeste 0 -- -- 90
2020-03-02 02:00:00 11.9 14 Sudoeste 40 Sudoeste 0 -- -- 90
2020-03-02 01:00:00 11.9 13 Sudoeste 42 Noroeste 0 -- -- 86
2020-03-02 00:00:00 11.8 13 Oeste 34 Oeste 0 -- -- 88